createdAt,value
2022-12-05T00:02:04.119Z,0.19
2022-12-05T00:04:52.246Z,0.16
2022-12-05T00:07:28.977Z,0.17
2022-12-05T00:09:57.300Z,0.15
2022-12-05T00:12:25.329Z,0.10
2022-12-05T00:14:53.292Z,0.07
2022-12-05T00:17:21.334Z,0.05
2022-12-05T00:19:55.093Z,0.04
2022-12-05T00:22:24.606Z,0.03
2022-12-05T00:24:52.622Z,0.02
2022-12-05T00:27:20.778Z,0.04
2022-12-05T00:29:48.732Z,-0.01
2022-12-05T00:32:16.685Z,-0.07
2022-12-05T00:34:44.677Z,-0.11
2022-12-05T00:37:12.573Z,-0.08
2022-12-05T00:39:40.454Z,-0.10
2022-12-05T00:42:08.486Z,-0.07
2022-12-05T00:44:36.379Z,-0.09
2022-12-05T00:47:04.293Z,-0.10
2022-12-05T00:49:32.256Z,-0.13
2022-12-05T00:52:00.152Z,-0.16
2022-12-05T00:54:38.864Z,-0.17
2022-12-05T00:57:06.971Z,-0.17
2022-12-05T00:59:34.871Z,-0.16
2022-12-05T01:02:09.331Z,-0.14
2022-12-05T01:04:44.764Z,-0.11
2022-12-05T01:07:19.553Z,-0.12
2022-12-05T01:09:53.722Z,-0.14
2022-12-05T01:12:29.250Z,-0.17
2022-12-05T01:14:57.131Z,-0.14
2022-12-05T01:17:25.017Z,-0.12
2022-12-05T01:19:52.888Z,-0.08
2022-12-05T01:22:20.828Z,-0.02
2022-12-05T01:24:48.716Z,0.02
2022-12-05T01:27:16.699Z,0.04
2022-12-05T01:29:50.237Z,0.02
2022-12-05T01:32:25.853Z,0.01
2022-12-05T01:35:00.462Z,0.02
2022-12-05T01:37:34.874Z,0.03
2022-12-05T01:40:09.712Z,0.00
2022-12-05T01:42:43.752Z,0.00
2022-12-05T01:45:40.138Z,-0.02
2022-12-05T01:48:18.324Z,-0.05
2022-12-05T01:50:48.715Z,-0.08
2022-12-05T01:53:17.807Z,-0.11
2022-12-05T01:55:53.917Z,-0.14
2022-12-05T01:58:32.793Z,-0.14
2022-12-05T02:01:06.814Z,-0.12
2022-12-05T02:03:44.318Z,-0.10
2022-12-05T02:06:19.160Z,-0.11
2022-12-05T02:08:54.558Z,-0.12
2022-12-05T02:11:30.351Z,-0.14
2022-12-05T02:14:15.007Z,-0.17
2022-12-05T02:16:47.580Z,-0.23
2022-12-05T02:19:48.456Z,-0.21
2022-12-05T02:22:51.604Z,-0.20
2022-12-05T02:25:41.321Z,-0.18
2022-12-05T02:28:48.916Z,-0.19
2022-12-05T02:31:41.397Z,-0.22
2022-12-05T02:34:26.886Z,-0.23
2022-12-05T02:37:33.562Z,-0.24
2022-12-05T02:40:22.931Z,-0.23
2022-12-05T02:43:08.118Z,-0.20
2022-12-05T02:45:45.532Z,-0.21
2022-12-05T02:48:35.167Z,-0.17
2022-12-05T02:51:28.733Z,-0.21
2022-12-05T02:54:08.759Z,-0.08
2022-12-05T02:56:46.837Z,-0.04
2022-12-05T02:59:23.601Z,-0.04
2022-12-05T03:01:58.244Z,-0.05
2022-12-05T03:04:33.742Z,-0.03
2022-12-05T03:07:12.649Z,0.04
2022-12-05T03:09:54.403Z,0.10
2022-12-05T03:12:42.417Z,0.11
2022-12-05T03:15:31.890Z,0.06
2022-12-05T03:18:14.798Z,0.10
2022-12-05T03:20:58.129Z,0.14
2022-12-05T03:23:41.850Z,0.17
2022-12-05T03:26:38.621Z,0.19
2022-12-05T03:29:34.186Z,0.23
2022-12-05T03:32:19.902Z,0.29
2022-12-05T03:35:14.188Z,0.37
2022-12-05T03:37:57.119Z,0.41
2022-12-05T03:40:30.974Z,0.36
2022-12-05T03:43:37.996Z,0.32
2022-12-05T03:46:19.124Z,0.30
2022-12-05T03:49:09.747Z,0.28
2022-12-05T03:51:44.778Z,0.25
2022-12-05T03:54:26.036Z,0.21
2022-12-05T03:57:13.981Z,0.20
2022-12-05T03:59:55.040Z,0.14
2022-12-05T04:02:45.507Z,0.23
2022-12-05T04:05:40.472Z,0.24
2022-12-05T04:08:26.303Z,0.17
2022-12-05T04:11:09.825Z,0.24
2022-12-05T04:13:52.257Z,0.27
2022-12-05T04:17:01.185Z,0.28
2022-12-05T04:19:58.988Z,0.22
2022-12-05T04:22:36.657Z,0.28
2022-12-05T04:25:34.682Z,0.27
2022-12-05T04:28:21.450Z,0.32
2022-12-05T04:31:22.983Z,0.26
2022-12-05T04:34:14.720Z,0.35
2022-12-05T04:36:58.166Z,0.29
2022-12-05T04:39:54.326Z,0.26
2022-12-05T04:42:26.344Z,0.25
2022-12-05T04:45:00.257Z,0.27
2022-12-05T04:47:34.986Z,0.27
2022-12-05T04:50:04.051Z,0.28
2022-12-05T04:52:33.856Z,0.29
2022-12-05T04:55:17.743Z,0.32
2022-12-05T04:57:58.085Z,0.28
2022-12-05T05:00:29.560Z,0.21
2022-12-05T05:03:17.140Z,0.19
2022-12-05T05:05:48.786Z,0.17
2022-12-05T05:08:22.217Z,0.18
2022-12-05T05:11:08.310Z,0.19
2022-12-05T05:13:36.354Z,0.20
2022-12-05T05:16:05.218Z,0.18
2022-12-05T05:18:33.855Z,0.16
2022-12-05T05:21:01.717Z,0.18
2022-12-05T05:23:29.762Z,0.20
2022-12-05T05:25:57.643Z,0.22
2022-12-05T05:28:25.503Z,0.22
2022-12-05T05:30:53.572Z,0.21
2022-12-05T05:33:21.650Z,0.20
2022-12-05T05:35:49.559Z,0.18
2022-12-05T05:38:17.488Z,0.16
2022-12-05T05:40:45.531Z,0.14
2022-12-05T05:43:13.482Z,0.16
2022-12-05T05:45:41.474Z,0.19
2022-12-05T05:48:09.410Z,0.17
2022-12-05T05:50:37.466Z,0.17
2022-12-05T05:53:12.219Z,0.16
2022-12-05T05:55:41.288Z,0.14
2022-12-05T05:58:09.621Z,0.12
2022-12-05T06:00:37.538Z,0.08
2022-12-05T06:03:05.592Z,0.09
2022-12-05T06:05:41.447Z,0.11
2022-12-05T06:08:09.408Z,0.10
2022-12-05T06:10:39.327Z,0.07
2022-12-05T06:13:07.306Z,0.05
2022-12-05T06:15:36.996Z,0.05
2022-12-05T06:18:04.934Z,0.03
2022-12-05T06:20:32.846Z,0.05
2022-12-05T06:23:00.698Z,0.08
2022-12-05T06:25:28.645Z,0.08
2022-12-05T06:28:13.402Z,0.07
2022-12-05T06:30:41.433Z,0.59
2022-12-05T06:33:09.591Z,0.54
2022-12-05T06:36:06.124Z,0.43
2022-12-05T06:38:36.911Z,0.34
2022-12-05T06:41:12.060Z,0.30
2022-12-05T06:43:39.975Z,0.28
2022-12-05T06:46:09.499Z,0.22
2022-12-05T06:48:37.456Z,0.18
2022-12-05T06:51:07.048Z,0.12
2022-12-05T06:53:35.039Z,0.09
2022-12-05T06:56:05.428Z,0.07
2022-12-05T06:58:35.452Z,0.04
2022-12-05T07:01:21.895Z,0.03
2022-12-05T07:03:50.105Z,0.03
2022-12-05T07:06:18.087Z,0.03
2022-12-05T07:08:46.114Z,0.04
2022-12-05T07:11:13.958Z,0.06
2022-12-05T07:13:42.410Z,0.09
2022-12-05T07:16:10.364Z,0.12
2022-12-05T07:18:38.421Z,0.12
2022-12-05T07:21:12.544Z,0.13
2022-12-05T07:23:42.672Z,0.16
2022-12-05T07:26:14.317Z,0.19
2022-12-05T07:28:42.712Z,0.22
2022-12-05T07:31:14.034Z,0.30
2022-12-05T07:33:42.178Z,0.33
2022-12-05T07:36:15.709Z,0.34
2022-12-05T07:38:44.644Z,0.34
2022-12-05T07:41:24.828Z,0.37
2022-12-05T07:43:54.225Z,0.45
2022-12-05T07:46:23.294Z,0.51
2022-12-05T07:48:52.116Z,0.59
2022-12-05T07:51:21.594Z,0.67
2022-12-05T07:53:50.038Z,0.73
2022-12-05T07:56:18.426Z,0.74
2022-12-05T07:58:49.195Z,0.75
2022-12-05T08:01:24.894Z,0.78
2022-12-05T08:03:55.051Z,0.82
2022-12-05T08:06:26.639Z,0.86
2022-12-05T08:08:55.249Z,0.91
2022-12-05T08:11:31.079Z,0.97
2022-12-05T08:13:59.255Z,1.00
2022-12-05T08:16:29.780Z,1.02
2022-12-05T08:19:03.831Z,1.04
2022-12-05T08:21:32.505Z,1.07
2022-12-05T08:24:01.128Z,1.10
2022-12-05T08:26:31.056Z,1.15
2022-12-05T08:29:03.497Z,1.16
2022-12-05T08:31:34.028Z,1.19
2022-12-05T08:34:02.597Z,1.19
2022-12-05T08:36:31.382Z,1.22
2022-12-05T08:39:02.260Z,1.31
2022-12-05T08:41:31.244Z,1.37
2022-12-05T08:44:03.310Z,1.42
2022-12-05T08:46:34.074Z,1.50
2022-12-05T08:49:03.875Z,1.58
2022-12-05T08:51:32.386Z,1.60
2022-12-05T08:54:03.503Z,1.63
2022-12-05T08:56:33.132Z,1.65
2022-12-05T08:59:05.611Z,1.69
2022-12-05T09:01:38.514Z,1.73
2022-12-05T09:04:07.789Z,1.70
2022-12-05T09:06:36.255Z,1.69
2022-12-05T09:09:06.757Z,1.73
2022-12-05T09:11:37.771Z,1.77
2022-12-05T09:14:05.685Z,1.84
2022-12-05T09:16:38.407Z,1.91
2022-12-05T09:19:21.019Z,1.98
2022-12-05T09:21:49.348Z,2.06
2022-12-05T09:24:17.446Z,2.14
2022-12-05T09:26:46.034Z,2.20
2022-12-05T09:29:17.304Z,2.23
2022-12-05T09:31:48.092Z,2.27
2022-12-05T09:34:18.353Z,2.33
2022-12-05T09:36:55.628Z,2.41
2022-12-05T09:39:29.428Z,2.49
2022-12-05T09:42:19.380Z,2.62
2022-12-05T09:45:06.145Z,2.71
2022-12-05T09:47:49.665Z,2.75
2022-12-05T09:50:17.511Z,2.83
2022-12-05T09:53:05.000Z,2.88
2022-12-05T09:55:43.845Z,2.95
2022-12-05T09:58:30.308Z,3.02
2022-12-05T10:01:03.505Z,3.07
2022-12-05T10:03:45.870Z,3.10
2022-12-05T10:06:28.864Z,3.15
2022-12-05T10:09:42.952Z,3.21
2022-12-05T10:12:10.950Z,3.26
2022-12-05T10:15:03.855Z,3.28
2022-12-05T10:17:35.380Z,3.30
2022-12-05T10:20:16.685Z,3.33
2022-12-05T10:22:52.215Z,3.40
2022-12-05T10:25:22.834Z,3.50
2022-12-05T10:27:57.131Z,3.58
2022-12-05T10:30:29.881Z,3.72
2022-12-05T10:33:01.772Z,3.80
2022-12-05T10:35:35.886Z,3.90
2022-12-05T10:38:07.015Z,4.02
2022-12-05T10:40:46.265Z,4.16
2022-12-05T10:43:23.762Z,4.31
2022-12-05T10:45:51.761Z,4.41
2022-12-05T10:48:21.329Z,4.46
2022-12-05T10:50:55.614Z,4.53
2022-12-05T10:53:41.837Z,4.64
2022-12-05T10:56:49.805Z,4.81
2022-12-05T10:59:20.616Z,4.96
2022-12-05T11:01:52.618Z,4.99
2022-12-05T11:04:28.795Z,5.02
2022-12-05T11:07:03.122Z,5.09
2022-12-05T11:09:37.293Z,5.18
2022-12-05T11:12:22.727Z,5.41
2022-12-05T11:14:58.650Z,6.42
2022-12-05T11:17:38.548Z,7.00
2022-12-05T11:20:34.175Z,7.49
2022-12-05T11:23:26.552Z,8.19
2022-12-05T11:25:56.578Z,9.11
2022-12-05T11:28:31.360Z,10.20
2022-12-05T11:31:02.497Z,10.47
2022-12-05T11:33:33.156Z,10.27
2022-12-05T11:36:35.791Z,9.64
2022-12-05T11:39:03.864Z,9.08
2022-12-05T11:42:03.737Z,9.56
2022-12-05T11:44:39.433Z,9.02
2022-12-05T11:47:27.917Z,8.38
2022-12-05T11:50:16.365Z,7.69
2022-12-05T11:52:56.560Z,7.20
2022-12-05T11:55:39.745Z,6.96
2022-12-05T11:58:19.790Z,6.72
2022-12-05T12:01:13.236Z,6.63
2022-12-05T12:03:53.926Z,6.50
2022-12-05T12:06:33.024Z,6.30
2022-12-05T12:09:25.644Z,6.16
2022-12-05T12:12:11.661Z,6.04
2022-12-05T12:15:01.068Z,5.95
2022-12-05T12:17:29.262Z,5.88
2022-12-05T12:20:39.013Z,5.89
2022-12-05T12:23:44.612Z,5.96
2022-12-05T12:26:14.673Z,5.97
2022-12-05T12:29:07.838Z,5.91
2022-12-05T12:31:55.890Z,5.89
2022-12-05T12:34:35.158Z,5.87
2022-12-05T12:37:17.478Z,5.89
2022-12-05T12:39:48.393Z,5.87
2022-12-05T12:42:20.303Z,5.84
2022-12-05T12:45:14.310Z,5.87
2022-12-05T12:48:29.987Z,5.89
2022-12-05T12:51:01.966Z,5.95
2022-12-05T12:53:44.958Z,6.00
2022-12-05T12:56:13.075Z,6.04
2022-12-05T12:58:52.180Z,6.05
2022-12-05T13:01:40.467Z,6.05
2022-12-05T13:04:15.939Z,6.05
2022-12-05T13:06:52.250Z,6.08
2022-12-05T13:09:52.171Z,6.12
2022-12-05T13:12:26.396Z,6.15
2022-12-05T13:15:02.918Z,6.14
2022-12-05T13:17:32.986Z,6.08
2022-12-05T13:20:03.260Z,6.01
2022-12-05T13:22:31.796Z,5.96
2022-12-05T13:24:59.962Z,5.92
2022-12-05T13:27:28.514Z,5.91
2022-12-05T13:29:59.922Z,5.89
2022-12-05T13:32:36.399Z,5.89
2022-12-05T13:35:06.891Z,5.83
2022-12-05T13:37:54.164Z,5.75
2022-12-05T13:40:48.201Z,5.68
2022-12-05T13:43:23.225Z,5.63
2022-12-05T13:46:08.739Z,5.60
2022-12-05T13:48:40.960Z,5.57
2022-12-05T13:51:26.373Z,5.56
2022-12-05T13:54:01.648Z,5.50
2022-12-05T13:56:48.051Z,5.44
2022-12-05T13:59:53.344Z,5.41
2022-12-05T14:02:47.289Z,5.32
2022-12-05T14:05:20.017Z,5.24
2022-12-05T14:07:53.009Z,5.19
2022-12-05T14:10:43.967Z,5.15
2022-12-05T14:13:14.988Z,5.12
2022-12-05T14:15:45.874Z,5.16
2022-12-05T14:18:18.677Z,5.16
2022-12-05T14:21:08.323Z,5.08
2022-12-05T14:23:42.748Z,5.00
2022-12-05T14:26:32.025Z,4.95
2022-12-05T14:29:08.955Z,4.92
2022-12-05T14:31:47.733Z,4.92
2022-12-05T14:34:25.272Z,4.91
2022-12-05T14:37:31.677Z,4.92
2022-12-05T14:40:02.379Z,4.90
2022-12-05T14:42:43.076Z,4.87
2022-12-05T14:45:48.038Z,4.83
2022-12-05T14:48:15.991Z,4.79
2022-12-05T14:50:49.230Z,4.81
2022-12-05T14:53:39.682Z,4.80
2022-12-05T14:56:16.248Z,4.81
2022-12-05T14:58:48.726Z,4.81
2022-12-05T15:01:22.402Z,4.82
2022-12-05T15:03:51.015Z,4.80
2022-12-05T15:06:19.080Z,4.71
2022-12-05T15:08:50.606Z,4.68
2022-12-05T15:11:28.715Z,4.65
2022-12-05T15:14:21.364Z,4.63
2022-12-05T15:16:54.023Z,4.62
2022-12-05T15:19:42.174Z,4.62
2022-12-05T15:22:15.356Z,4.61
2022-12-05T15:24:43.448Z,4.57
2022-12-05T15:27:12.217Z,4.55
2022-12-05T15:29:41.252Z,4.56
2022-12-05T15:32:12.144Z,4.49
2022-12-05T15:34:45.551Z,4.42
2022-12-05T15:37:32.527Z,4.38
2022-12-05T15:40:20.794Z,4.35
2022-12-05T15:42:54.378Z,4.34
2022-12-05T15:45:23.562Z,4.36
2022-12-05T15:48:07.219Z,4.37
2022-12-05T15:51:04.544Z,4.37
2022-12-05T15:53:40.183Z,4.37
2022-12-05T15:56:23.087Z,4.38
2022-12-05T15:59:03.367Z,4.36
2022-12-05T16:01:35.904Z,4.36
2022-12-05T16:04:29.928Z,4.37
2022-12-05T16:07:05.327Z,4.38
2022-12-05T16:09:34.647Z,4.40
2022-12-05T16:12:16.215Z,4.41
2022-12-05T16:15:01.367Z,4.45
2022-12-05T16:17:37.879Z,4.51
2022-12-05T16:20:18.141Z,4.56
2022-12-05T16:22:51.196Z,4.60
2022-12-05T16:25:27.559Z,4.61
2022-12-05T16:28:14.792Z,4.64
2022-12-05T16:30:55.562Z,4.67
2022-12-05T16:33:23.805Z,4.66
2022-12-05T16:35:51.998Z,4.64
2022-12-05T16:38:25.792Z,4.61
2022-12-05T16:41:02.037Z,4.63
2022-12-05T16:43:33.238Z,4.65
2022-12-05T16:46:13.532Z,4.65
2022-12-05T16:48:50.158Z,4.69
2022-12-05T16:51:21.360Z,4.70
2022-12-05T16:53:51.535Z,4.67
2022-12-05T16:56:29.838Z,4.68
2022-12-05T16:58:58.686Z,4.69
2022-12-05T17:01:27.515Z,4.69
2022-12-05T17:03:57.229Z,4.70
2022-12-05T17:06:26.394Z,4.71
2022-12-05T17:08:55.025Z,4.66
2022-12-05T17:11:30.037Z,4.62
2022-12-05T17:13:58.447Z,4.58
2022-12-05T17:16:27.144Z,4.60
2022-12-05T17:18:55.689Z,4.63
2022-12-05T17:21:26.945Z,4.62
2022-12-05T17:23:55.367Z,4.59
2022-12-05T17:26:23.387Z,4.56
2022-12-05T17:28:51.393Z,4.58
2022-12-05T17:31:21.943Z,4.63
2022-12-05T17:33:52.181Z,4.66
2022-12-05T17:36:23.490Z,4.65
2022-12-05T17:38:51.446Z,4.65
2022-12-05T17:41:23.068Z,4.66
2022-12-05T17:43:51.647Z,4.66
2022-12-05T17:46:22.307Z,4.66
2022-12-05T17:48:51.486Z,4.67
2022-12-05T17:51:20.664Z,4.68
2022-12-05T17:53:48.908Z,4.69
2022-12-05T17:56:16.858Z,4.68
2022-12-05T17:58:44.810Z,4.67
2022-12-05T18:01:18.727Z,4.66
2022-12-05T18:03:48.225Z,4.61
2022-12-05T18:06:16.753Z,4.60
2022-12-05T18:08:45.416Z,4.61
2022-12-05T18:11:14.674Z,4.63
2022-12-05T18:13:42.672Z,4.66
2022-12-05T18:16:11.125Z,4.70
2022-12-05T18:18:39.470Z,4.72
2022-12-05T18:21:12.469Z,4.73
2022-12-05T18:23:41.210Z,4.75
2022-12-05T18:26:10.979Z,4.76
2022-12-05T18:28:39.977Z,4.80
2022-12-05T18:31:11.164Z,4.79
2022-12-05T18:33:39.546Z,4.76
2022-12-05T18:36:11.493Z,4.73
2022-12-05T18:38:39.603Z,4.72
2022-12-05T18:41:07.577Z,4.72
2022-12-05T18:43:36.078Z,4.75
2022-12-05T18:46:04.623Z,4.71
2022-12-05T18:48:46.981Z,4.66
2022-12-05T18:51:20.900Z,4.61
2022-12-05T18:53:54.858Z,4.59
2022-12-05T18:56:27.638Z,4.58
2022-12-05T19:02:05.301Z,4.64
2022-12-05T19:04:33.263Z,4.67
2022-12-05T19:07:02.070Z,4.71
2022-12-05T19:09:31.463Z,4.69
2022-12-05T19:12:00.837Z,4.66
2022-12-05T19:14:33.000Z,4.66
2022-12-05T19:17:02.717Z,4.71
2022-12-05T19:19:33.401Z,4.71
2022-12-05T19:22:02.257Z,4.70
2022-12-05T19:24:30.501Z,4.67
2022-12-05T19:26:58.427Z,4.64
2022-12-05T19:29:26.412Z,4.61
2022-12-05T19:31:54.351Z,4.56
2022-12-05T19:34:24.392Z,4.47
2022-12-05T19:36:52.328Z,4.40
2022-12-05T19:39:23.721Z,4.34
2022-12-05T19:41:51.996Z,4.30
2022-12-05T19:44:22.178Z,4.31
2022-12-05T19:46:50.771Z,4.33
2022-12-05T19:49:19.308Z,4.34
2022-12-05T19:51:48.747Z,4.30
2022-12-05T19:54:22.074Z,4.27
2022-12-05T19:56:50.115Z,4.26
2022-12-05T19:59:18.151Z,4.24
2022-12-05T20:01:46.130Z,4.20
2022-12-05T20:04:16.230Z,4.17
2022-12-05T20:06:47.869Z,4.18
2022-12-05T20:09:19.432Z,4.21
2022-12-05T20:11:55.149Z,4.25
2022-12-05T20:14:25.589Z,4.27
2022-12-05T20:16:56.143Z,4.30
2022-12-05T20:19:24.205Z,4.31
2022-12-05T20:21:52.564Z,4.30
2022-12-05T20:24:20.598Z,4.31
2022-12-05T20:26:48.846Z,4.36
2022-12-05T20:29:16.776Z,4.40
2022-12-05T20:31:44.835Z,4.41
2022-12-05T20:34:15.194Z,4.42
2022-12-05T20:36:43.449Z,4.43
2022-12-05T20:39:14.905Z,4.44
2022-12-05T20:41:43.794Z,4.38
2022-12-05T20:44:15.138Z,4.28
2022-12-05T20:46:43.295Z,4.23
2022-12-05T20:49:14.554Z,4.18
2022-12-05T20:51:44.134Z,4.13
2022-12-05T20:54:13.660Z,4.08
2022-12-05T20:56:41.672Z,4.09
2022-12-05T20:59:11.858Z,4.11
2022-12-05T21:01:40.323Z,4.15
2022-12-05T21:04:09.179Z,4.38
2022-12-05T21:06:40.565Z,4.34
2022-12-05T21:09:15.484Z,4.25
2022-12-05T21:11:43.523Z,4.20
2022-12-05T21:14:12.149Z,4.19
2022-12-05T21:16:40.640Z,4.25
2022-12-05T21:19:08.944Z,4.30
2022-12-05T21:21:37.162Z,4.37
2022-12-05T21:24:06.266Z,4.37
2022-12-05T21:26:35.012Z,4.37
2022-12-05T21:29:04.733Z,4.40
2022-12-05T21:31:35.666Z,4.46
2022-12-05T21:34:07.037Z,4.50
2022-12-05T21:36:36.887Z,4.52
2022-12-05T21:39:06.189Z,4.51
2022-12-05T21:41:34.512Z,4.48
2022-12-05T21:44:02.827Z,4.48
2022-12-05T21:46:31.293Z,4.47
2022-12-05T21:48:59.688Z,4.44
2022-12-05T21:51:27.795Z,4.37
2022-12-05T21:53:55.726Z,4.29
2022-12-05T21:56:24.441Z,4.23
2022-12-05T21:58:52.297Z,4.18
2022-12-05T22:01:24.951Z,4.22
2022-12-05T22:03:54.970Z,4.25
2022-12-05T22:06:23.137Z,4.25
2022-12-05T22:08:51.347Z,4.23
2022-12-05T22:11:21.464Z,4.23
2022-12-05T22:13:50.004Z,4.22
2022-12-05T22:16:18.506Z,4.19
2022-12-05T22:18:46.924Z,4.16
2022-12-05T22:21:18.382Z,4.11
2022-12-05T22:23:47.670Z,4.06
2022-12-05T22:26:17.307Z,3.99
2022-12-05T22:28:45.774Z,3.97
2022-12-05T22:31:16.066Z,3.97
2022-12-05T22:33:45.236Z,3.99
2022-12-05T22:36:15.281Z,4.03
2022-12-05T22:38:46.921Z,4.07
2022-12-05T22:41:26.403Z,4.09
2022-12-05T22:43:57.476Z,4.14
2022-12-05T22:46:27.351Z,4.17
2022-12-05T22:48:56.545Z,4.18
2022-12-05T22:51:26.396Z,4.21
2022-12-05T22:53:54.911Z,4.24
2022-12-05T22:56:26.257Z,4.29
2022-12-05T22:58:56.982Z,4.34
2022-12-05T23:01:30.271Z,4.36
2022-12-05T23:04:01.069Z,4.39
2022-12-05T23:06:30.822Z,4.41
2022-12-05T23:08:59.477Z,4.44
2022-12-05T23:11:28.687Z,4.44
2022-12-05T23:14:02.225Z,4.43
2022-12-05T23:16:32.745Z,4.42
2022-12-05T23:19:04.207Z,4.42
2022-12-05T23:21:37.313Z,4.42
2022-12-05T23:24:08.305Z,4.43
2022-12-05T23:26:42.465Z,4.44
2022-12-05T23:29:12.588Z,4.41
2022-12-05T23:31:42.324Z,4.37
2022-12-05T23:34:11.218Z,4.35
2022-12-05T23:36:39.588Z,4.32
2022-12-05T23:39:07.646Z,4.28
2022-12-05T23:41:35.709Z,4.31
2022-12-05T23:44:04.051Z,4.31
2022-12-05T23:46:32.321Z,4.30
2022-12-05T23:49:00.662Z,4.26
2022-12-05T23:51:30.854Z,4.21
2022-12-05T23:54:01.727Z,4.15
2022-12-05T23:56:32.684Z,4.08
2022-12-05T23:59:02.704Z,4.08
